createdAt,value
2023-01-10T00:00:34.766Z,1.00
2023-01-10T00:03:36.073Z,1.13
2023-01-10T00:06:37.384Z,0.98
2023-01-10T00:09:38.785Z,1.10
2023-01-10T00:12:40.090Z,0.80
2023-01-10T00:15:41.408Z,0.68
2023-01-10T00:18:42.750Z,1.20
2023-01-10T00:21:44.044Z,1.38
2023-01-10T00:24:45.385Z,1.05
2023-01-10T00:27:46.668Z,1.20
2023-01-10T00:30:48.108Z,0.90
2023-01-10T00:33:49.442Z,0.70
2023-01-10T00:36:50.738Z,0.82
2023-01-10T00:39:52.062Z,1.08
2023-01-10T00:42:53.344Z,0.80
2023-01-10T00:45:54.694Z,0.88
2023-01-10T00:48:56.018Z,1.00
2023-01-10T00:51:57.373Z,1.13
2023-01-10T00:54:58.675Z,0.90
2023-01-10T00:57:59.980Z,0.97
2023-01-10T01:01:01.336Z,0.90
2023-01-10T01:04:02.665Z,0.98
2023-01-10T01:07:03.967Z,0.70
2023-01-10T01:10:05.267Z,1.08
2023-01-10T01:13:06.561Z,0.73
2023-01-10T01:16:07.908Z,0.93
2023-01-10T01:19:09.239Z,1.10
2023-01-10T01:22:10.537Z,0.88
2023-01-10T01:25:11.847Z,1.20
2023-01-10T01:28:13.170Z,0.70
2023-01-10T01:31:14.516Z,0.85
2023-01-10T01:34:15.811Z,1.00
2023-01-10T01:37:17.118Z,0.80
2023-01-10T01:40:18.415Z,1.17
2023-01-10T01:43:19.742Z,0.90
2023-01-10T01:46:21.109Z,0.70
2023-01-10T01:49:22.425Z,1.10
2023-01-10T01:52:23.698Z,0.75
2023-01-10T01:55:25.033Z,0.80
2023-01-10T01:58:26.325Z,0.90
2023-01-10T02:01:27.709Z,1.15
2023-01-10T02:04:29.153Z,0.90
2023-01-10T02:07:30.446Z,1.08
2023-01-10T02:10:31.753Z,0.80
2023-01-10T02:13:33.034Z,0.70
2023-01-10T02:16:34.364Z,0.95
2023-01-10T02:19:35.652Z,0.90
2023-01-10T02:22:36.978Z,0.77
2023-01-10T02:25:38.270Z,0.98
2023-01-10T02:28:39.575Z,0.73
2023-01-10T02:31:40.900Z,0.90
2023-01-10T02:34:42.200Z,0.93
2023-01-10T02:37:43.507Z,0.93
2023-01-10T02:40:44.812Z,0.90
2023-01-10T02:43:46.111Z,0.70
2023-01-10T02:46:47.447Z,0.60
2023-01-10T02:49:48.786Z,0.70
2023-01-10T02:52:50.079Z,0.50
2023-01-10T02:55:51.381Z,0.90
2023-01-10T02:58:52.668Z,0.80
2023-01-10T03:01:53.986Z,0.55
2023-01-10T03:04:55.355Z,1.10
2023-01-10T03:07:56.691Z,0.70
2023-01-10T03:10:58.019Z,0.65
2023-01-10T03:13:59.331Z,0.83
2023-01-10T03:17:00.652Z,0.20
2023-01-10T03:20:01.933Z,0.68
2023-01-10T03:23:03.245Z,0.63
2023-01-10T03:26:04.537Z,0.80
2023-01-10T03:29:05.839Z,0.40
2023-01-10T03:32:07.275Z,0.73
2023-01-10T03:35:08.579Z,1.02
2023-01-10T03:38:09.872Z,0.43
2023-01-10T03:41:11.146Z,0.63
2023-01-10T03:44:12.458Z,1.10
2023-01-10T03:47:13.773Z,0.82
2023-01-10T03:50:15.052Z,0.73
2023-01-10T03:53:16.367Z,0.43
2023-01-10T03:56:17.641Z,1.00
2023-01-10T03:59:18.943Z,0.93
2023-01-10T04:02:20.229Z,0.60
2023-01-10T04:05:21.533Z,0.80
2023-01-10T04:08:22.817Z,1.00
2023-01-10T04:11:24.113Z,0.70
2023-01-10T04:14:25.412Z,0.77
2023-01-10T04:17:26.700Z,0.60
2023-01-10T04:20:28.030Z,0.90
2023-01-10T04:23:29.339Z,0.90
2023-01-10T04:26:30.649Z,0.90
2023-01-10T04:29:31.971Z,0.93
2023-01-10T04:32:33.379Z,0.95
2023-01-10T04:35:34.685Z,1.00
2023-01-10T04:38:36.011Z,0.63
2023-01-10T04:41:37.287Z,0.77
2023-01-10T04:44:38.583Z,0.83
2023-01-10T04:47:39.889Z,1.17
2023-01-10T04:50:41.189Z,1.20
2023-01-10T04:53:42.514Z,1.17
2023-01-10T04:56:43.815Z,1.58
2023-01-10T04:59:45.130Z,0.90
2023-01-10T05:02:46.489Z,0.80
2023-01-10T05:05:47.896Z,0.98
2023-01-10T05:08:49.199Z,0.70
2023-01-10T05:11:50.506Z,1.15
2023-01-10T05:14:51.824Z,0.90
2023-01-10T05:17:53.127Z,0.70
2023-01-10T05:20:54.443Z,1.10
2023-01-10T05:23:55.740Z,0.75
2023-01-10T05:26:57.068Z,0.90
2023-01-10T05:29:58.474Z,0.90
2023-01-10T05:32:59.758Z,0.85
2023-01-10T05:36:01.077Z,0.90
2023-01-10T05:39:02.393Z,1.00
2023-01-10T05:42:03.713Z,1.08
2023-01-10T05:45:05.002Z,1.13
2023-01-10T05:48:06.331Z,0.70
2023-01-10T05:51:07.679Z,1.02
2023-01-10T05:54:08.995Z,1.20
2023-01-10T05:57:10.296Z,1.50
2023-01-10T06:00:11.625Z,1.60
2023-01-10T06:03:12.926Z,1.20
2023-01-10T06:06:14.238Z,0.95
2023-01-10T06:09:15.548Z,0.93
2023-01-10T06:12:16.902Z,1.00
2023-01-10T06:15:18.195Z,0.80
2023-01-10T06:18:19.507Z,1.15
2023-01-10T06:21:20.791Z,1.10
2023-01-10T06:24:22.089Z,0.80
2023-01-10T06:27:23.384Z,0.85
2023-01-10T06:30:24.692Z,1.13
2023-01-10T06:33:25.984Z,1.10
2023-01-10T06:36:27.341Z,0.88
2023-01-10T06:39:28.653Z,0.90
2023-01-10T06:42:29.967Z,1.05
2023-01-10T06:45:31.331Z,1.10
2023-01-10T06:48:32.644Z,1.00
2023-01-10T06:51:33.975Z,0.95
2023-01-10T06:54:35.281Z,1.40
2023-01-10T06:57:36.598Z,1.58
2023-01-10T07:00:37.891Z,1.60
2023-01-10T07:03:39.267Z,3.22
2023-01-10T07:06:40.619Z,1.90
2023-01-10T07:09:41.928Z,1.58
2023-01-10T07:12:43.223Z,1.83
2023-01-10T07:15:44.648Z,2.63
2023-01-10T07:18:45.975Z,1.90
2023-01-10T07:21:47.294Z,1.40
2023-01-10T07:24:48.596Z,1.42
2023-01-10T07:27:49.936Z,1.30
2023-01-10T07:30:51.269Z,1.40
2023-01-10T07:33:52.610Z,1.85
2023-01-10T07:36:54.021Z,1.48
2023-01-10T07:39:55.330Z,1.27
2023-01-10T07:42:56.650Z,1.75
2023-01-10T07:45:58.005Z,1.53
2023-01-10T07:48:59.364Z,1.55
2023-01-10T07:52:00.678Z,1.95
2023-01-10T07:55:01.994Z,1.33
2023-01-10T07:58:03.305Z,1.20
2023-01-10T08:01:04.651Z,1.93
2023-01-10T08:04:05.985Z,2.55
2023-01-10T08:07:07.282Z,1.85
2023-01-10T08:10:08.633Z,3.78
2023-01-10T08:13:18.399Z,4.13
2023-01-10T08:16:20.458Z,4.30
2023-01-10T08:19:21.758Z,4.80
2023-01-10T08:22:23.113Z,4.30
2023-01-10T08:25:24.444Z,4.47
2023-01-10T08:28:25.762Z,3.08
2023-01-10T08:31:27.168Z,3.03
2023-01-10T08:34:28.512Z,3.22
2023-01-10T08:37:29.836Z,2.90
2023-01-10T08:40:31.215Z,2.40
2023-01-10T08:43:32.517Z,2.50
2023-01-10T08:46:33.884Z,2.23
2023-01-10T08:49:35.235Z,2.30
2023-01-10T08:52:36.544Z,3.70
2023-01-10T08:55:37.851Z,3.58
2023-01-10T08:58:39.170Z,3.67
2023-01-10T09:01:40.569Z,5.27
2023-01-10T09:04:41.919Z,4.20
2023-01-10T09:07:43.288Z,3.63
2023-01-10T09:10:44.582Z,2.67
2023-01-10T09:13:45.917Z,3.08
2023-01-10T09:16:47.212Z,3.20
2023-01-10T09:19:48.516Z,3.17
2023-01-10T09:22:49.895Z,3.35
2023-01-10T09:25:51.215Z,3.30
2023-01-10T09:28:52.540Z,2.90
2023-01-10T09:31:53.844Z,2.57
2023-01-10T09:34:55.201Z,2.55
2023-01-10T09:37:56.483Z,4.97
2023-01-10T09:40:57.842Z,3.50
2023-01-10T09:44:01.114Z,2.78
2023-01-10T09:47:08.460Z,3.37
2023-01-10T09:50:15.645Z,3.72
2023-01-10T09:53:16.967Z,2.83
2023-01-10T09:56:18.288Z,3.22
2023-01-10T09:59:19.624Z,2.05
2023-01-10T10:02:20.933Z,3.53
2023-01-10T10:05:22.246Z,3.13
2023-01-10T10:08:23.543Z,2.22
2023-01-10T10:11:24.867Z,3.00
2023-01-10T10:14:26.257Z,1.95
2023-01-10T10:17:27.579Z,1.93
2023-01-10T10:20:28.900Z,6.10
2023-01-10T10:23:30.796Z,4.25
2023-01-10T10:26:33.028Z,3.83
2023-01-10T10:29:34.353Z,4.40
2023-01-10T10:32:35.659Z,3.27
2023-01-10T10:35:36.958Z,2.50
2023-01-10T10:38:38.269Z,3.72
2023-01-10T10:41:39.574Z,4.40
2023-01-10T10:44:40.903Z,3.45
2023-01-10T10:47:42.210Z,2.33
2023-01-10T10:50:43.502Z,2.13
2023-01-10T10:53:44.893Z,2.22
2023-01-10T10:56:46.188Z,2.50
2023-01-10T10:59:47.517Z,2.53
2023-01-10T11:02:48.824Z,2.73
2023-01-10T11:05:50.129Z,2.35
2023-01-10T11:08:51.517Z,2.35
2023-01-10T11:11:52.816Z,3.25
2023-01-10T11:14:54.128Z,2.70
2023-01-10T11:17:55.411Z,2.07
2023-01-10T11:20:56.729Z,2.22
2023-01-10T11:23:58.098Z,3.15
2023-01-10T11:26:59.399Z,2.53
2023-01-10T11:30:00.689Z,1.63
2023-01-10T11:33:02.004Z,2.70
2023-01-10T11:36:03.336Z,2.22
2023-01-10T11:39:04.653Z,2.00
2023-01-10T11:42:05.963Z,2.65
2023-01-10T11:45:07.262Z,2.50
2023-01-10T11:48:08.562Z,4.57
2023-01-10T11:51:09.903Z,3.25
2023-01-10T11:54:11.210Z,3.00
2023-01-10T11:57:12.531Z,2.30
2023-01-10T12:00:13.935Z,2.58
2023-01-10T12:03:15.298Z,2.33
2023-01-10T12:06:16.625Z,2.28
2023-01-10T12:09:17.895Z,3.78
2023-01-10T12:12:19.248Z,3.83
2023-01-10T12:15:20.541Z,3.50
2023-01-10T12:18:21.858Z,2.13
2023-01-10T12:21:23.180Z,2.30
2023-01-10T12:24:24.582Z,2.85
2023-01-10T12:27:25.906Z,2.28
2023-01-10T12:30:27.231Z,2.67
2023-01-10T12:33:28.621Z,2.57
2023-01-10T12:36:29.929Z,3.40
2023-01-10T12:39:31.220Z,4.47
2023-01-10T12:42:32.556Z,5.30
2023-01-10T12:45:33.864Z,3.70
2023-01-10T12:48:35.193Z,3.47
2023-01-10T12:51:36.493Z,4.97
2023-01-10T12:54:37.803Z,3.88
2023-01-10T12:57:39.392Z,4.40
2023-01-10T13:00:48.127Z,5.15
2023-01-10T13:03:50.108Z,5.90
2023-01-10T13:06:51.424Z,5.22
2023-01-10T13:09:52.763Z,5.57
2023-01-10T13:12:54.052Z,5.20
2023-01-10T13:15:55.496Z,4.47
2023-01-10T13:18:56.849Z,3.80
2023-01-10T13:21:58.174Z,4.50
2023-01-10T13:24:59.589Z,4.22
2023-01-10T13:28:00.913Z,4.88
2023-01-10T13:31:02.263Z,3.88
2023-01-10T13:34:03.614Z,3.27
2023-01-10T13:37:04.931Z,3.42
2023-01-10T13:40:06.282Z,3.25
2023-01-10T13:43:08.220Z,3.65
2023-01-10T13:46:09.614Z,2.95
2023-01-10T13:49:10.957Z,2.97
2023-01-10T13:52:12.281Z,2.85
2023-01-10T13:55:13.610Z,3.17
2023-01-10T13:58:15.027Z,3.95
2023-01-10T14:01:16.400Z,2.80
2023-01-10T14:04:17.814Z,2.03
2023-01-10T14:07:19.177Z,2.30
2023-01-10T14:10:20.505Z,3.17
2023-01-10T14:13:21.836Z,2.40
2023-01-10T14:16:23.249Z,2.88
2023-01-10T14:19:24.594Z,2.07
2023-01-10T14:22:25.905Z,1.88
2023-01-10T14:25:27.239Z,2.00
2023-01-10T14:28:28.570Z,2.15
2023-01-10T14:31:29.941Z,2.33
2023-01-10T14:34:31.276Z,2.07
2023-01-10T14:37:32.646Z,2.10
2023-01-10T14:40:33.994Z,2.35
2023-01-10T14:43:35.341Z,2.58
2023-01-10T14:46:36.681Z,2.50
2023-01-10T14:49:38.018Z,2.30
2023-01-10T14:52:39.323Z,1.90
2023-01-10T14:55:40.689Z,2.38
2023-01-10T14:58:42.011Z,2.42
2023-01-10T15:01:43.407Z,1.67
2023-01-10T15:04:44.828Z,2.03
2023-01-10T15:07:46.150Z,2.28
2023-01-10T15:10:47.485Z,2.13
2023-01-10T15:13:48.823Z,1.65
2023-01-10T15:16:50.126Z,2.03
2023-01-10T15:19:51.581Z,2.13
2023-01-10T15:22:52.899Z,2.17
2023-01-10T15:25:54.239Z,3.97
2023-01-10T15:28:55.516Z,2.42
2023-01-10T15:31:56.824Z,2.63
2023-01-10T15:34:58.133Z,2.70
2023-01-10T15:37:59.464Z,3.03
2023-01-10T15:41:00.763Z,5.53
2023-01-10T15:44:02.061Z,4.45
2023-01-10T15:47:03.373Z,4.00
2023-01-10T15:50:04.685Z,3.60
2023-01-10T15:53:06.026Z,4.03
2023-01-10T15:56:07.444Z,2.75
2023-01-10T15:59:08.783Z,4.07
2023-01-10T16:02:10.304Z,6.30
2023-01-10T16:05:11.754Z,3.60
2023-01-10T16:08:13.050Z,3.47
2023-01-10T16:11:14.377Z,3.28
2023-01-10T16:14:15.705Z,3.38
2023-01-10T16:17:17.043Z,3.17
2023-01-10T16:20:18.331Z,3.27
2023-01-10T16:23:19.635Z,2.80
2023-01-10T16:26:20.983Z,2.20
2023-01-10T16:29:22.282Z,2.00
2023-01-10T16:32:23.579Z,1.77
2023-01-10T16:35:24.905Z,1.53
2023-01-10T16:38:26.225Z,2.20
2023-01-10T16:41:27.648Z,2.00
2023-01-10T16:44:28.956Z,1.55
2023-01-10T16:47:30.244Z,2.00
2023-01-10T16:50:31.660Z,2.03
2023-01-10T16:53:32.957Z,2.47
2023-01-10T16:56:34.294Z,2.55
2023-01-10T16:59:35.592Z,1.90
2023-01-10T17:02:36.921Z,2.05
2023-01-10T17:05:38.220Z,1.70
2023-01-10T17:08:39.540Z,1.67
2023-01-10T17:11:40.984Z,2.13
2023-01-10T17:14:42.288Z,2.83
2023-01-10T17:17:43.720Z,2.00
2023-01-10T17:20:45.180Z,1.93
2023-01-10T17:23:46.491Z,2.05
2023-01-10T17:26:47.804Z,1.83
2023-01-10T17:29:49.123Z,2.17
2023-01-10T17:32:50.523Z,2.25
2023-01-10T17:35:51.832Z,1.37
2023-01-10T17:38:53.132Z,1.98
2023-01-10T17:41:54.482Z,2.15
2023-01-10T17:44:55.794Z,1.92
2023-01-10T17:47:57.105Z,1.75
2023-01-10T17:50:58.428Z,2.10
2023-01-10T17:53:59.724Z,1.95
2023-01-10T17:57:01.033Z,1.90
2023-01-10T18:00:02.322Z,1.40
2023-01-10T18:03:03.715Z,1.33
2023-01-10T18:06:07.666Z,1.10
2023-01-10T18:09:09.130Z,1.88
2023-01-10T18:12:10.430Z,1.92
2023-01-10T18:15:11.752Z,1.50
2023-01-10T18:18:13.083Z,1.63
2023-01-10T18:21:14.412Z,1.67
2023-01-10T18:24:15.819Z,1.77
2023-01-10T18:27:17.125Z,1.50
2023-01-10T18:30:18.432Z,1.45
2023-01-10T18:33:20.167Z,1.65
2023-01-10T18:36:21.844Z,1.60
2023-01-10T18:39:23.224Z,1.52
2023-01-10T18:42:24.533Z,1.98
2023-01-10T18:45:25.883Z,1.85
2023-01-10T18:48:27.189Z,1.67
2023-01-10T18:51:28.507Z,1.43
2023-01-10T18:54:29.847Z,1.48
2023-01-10T18:57:31.149Z,1.80
2023-01-10T19:00:34.187Z,1.40
2023-01-10T19:03:35.656Z,1.70
2023-01-10T19:06:38.269Z,1.77
2023-01-10T19:09:39.580Z,1.65
2023-01-10T19:12:41.826Z,1.35
2023-01-10T19:15:43.382Z,1.30
2023-01-10T19:18:45.141Z,1.58
2023-01-10T19:21:46.925Z,1.13
2023-01-10T19:24:48.651Z,1.40
2023-01-10T19:27:50.205Z,1.42
2023-01-10T19:31:03.008Z,1.15
2023-01-10T19:34:05.675Z,1.38
2023-01-10T19:37:07.004Z,1.70
2023-01-10T19:40:08.330Z,1.50
2023-01-10T19:43:09.635Z,1.40
2023-01-10T19:46:11.037Z,1.33
2023-01-10T19:49:12.546Z,2.72
2023-01-10T19:52:13.872Z,1.37
2023-01-10T19:55:15.195Z,1.67
2023-01-10T19:58:16.936Z,1.70
2023-01-10T20:01:18.408Z,1.08
2023-01-10T20:04:19.787Z,1.30
2023-01-10T20:07:21.410Z,1.47
2023-01-10T20:10:22.796Z,1.38
2023-01-10T20:13:24.477Z,1.52
2023-01-10T20:16:26.189Z,1.17
2023-01-10T20:19:27.953Z,1.20
2023-01-10T20:22:29.363Z,1.13
2023-01-10T20:25:30.949Z,1.25
2023-01-10T20:28:32.319Z,1.70
2023-01-10T20:31:33.666Z,1.10
2023-01-10T20:34:35.223Z,1.38
2023-01-10T20:37:36.635Z,1.40
2023-01-10T20:40:37.959Z,1.52
2023-01-10T20:43:39.614Z,1.63
2023-01-10T20:46:41.156Z,1.10
2023-01-10T20:49:42.531Z,1.65
2023-01-10T20:52:44.122Z,1.47
2023-01-10T20:55:50.842Z,1.38
2023-01-10T20:59:00.425Z,1.90
2023-01-10T21:02:01.865Z,1.08
2023-01-10T21:05:03.182Z,1.85
2023-01-10T21:08:04.485Z,1.67
2023-01-10T21:11:05.799Z,1.30
2023-01-10T21:14:07.230Z,1.40
2023-01-10T21:17:08.571Z,1.60
2023-01-10T21:20:09.880Z,1.38
2023-01-10T21:23:11.196Z,1.10
2023-01-10T21:26:12.580Z,1.35
2023-01-10T21:29:13.878Z,1.55
2023-01-10T21:32:15.158Z,1.60
2023-01-10T21:35:16.470Z,1.23
2023-01-10T21:38:17.767Z,1.30
2023-01-10T21:41:19.066Z,1.38
2023-01-10T21:44:20.386Z,1.77
2023-01-10T21:47:21.678Z,1.58
2023-01-10T21:50:22.993Z,1.50
2023-01-10T21:53:24.315Z,1.23
2023-01-10T21:56:25.611Z,1.48
2023-01-10T21:59:26.926Z,1.85
2023-01-10T22:02:28.237Z,0.75
2023-01-10T22:05:29.569Z,1.15
2023-01-10T22:08:30.887Z,1.53
2023-01-10T22:11:32.225Z,1.30
2023-01-10T22:14:33.525Z,1.70
2023-01-10T22:17:34.838Z,1.42
2023-01-10T22:20:36.133Z,1.73
2023-01-10T22:23:37.431Z,1.27
2023-01-10T22:26:38.754Z,1.73
2023-01-10T22:29:40.052Z,1.35
2023-01-10T22:32:41.360Z,1.52
2023-01-10T22:35:42.661Z,1.13
2023-01-10T22:38:43.976Z,1.37
2023-01-10T22:41:45.257Z,1.65
2023-01-10T22:44:46.575Z,1.40
2023-01-10T22:47:47.854Z,1.45
2023-01-10T22:50:49.182Z,1.52
2023-01-10T22:53:50.462Z,1.60
2023-01-10T22:56:51.780Z,1.20
2023-01-10T22:59:53.029Z,1.30
2023-01-10T23:02:54.295Z,1.42
2023-01-10T23:05:55.552Z,1.15
2023-01-10T23:08:56.841Z,1.57
2023-01-10T23:11:58.088Z,1.17
2023-01-10T23:14:59.368Z,1.40
2023-01-10T23:18:00.607Z,1.52
2023-01-10T23:21:01.876Z,1.23
2023-01-10T23:24:03.131Z,1.43
2023-01-10T23:27:04.392Z,1.00
2023-01-10T23:30:05.623Z,1.27
2023-01-10T23:33:06.907Z,1.40
2023-01-10T23:36:08.177Z,1.70
2023-01-10T23:39:09.427Z,1.20
2023-01-10T23:42:10.673Z,1.60
2023-01-10T23:45:11.910Z,1.77
2023-01-10T23:48:13.211Z,1.25
2023-01-10T23:51:14.489Z,1.23
2023-01-10T23:54:15.744Z,1.23
2023-01-10T23:57:16.990Z,1.35
